createdAt,value
2022-11-25T00:01:25.824Z,7.06
2022-11-25T00:03:57.089Z,7.05
2022-11-25T00:06:28.517Z,7.07
2022-11-25T00:08:59.031Z,7.01
2022-11-25T00:11:27.487Z,6.98
2022-11-25T00:13:57.729Z,6.99
2022-11-25T00:16:27.620Z,7.03
2022-11-25T00:18:57.556Z,7.08
2022-11-25T00:21:29.367Z,6.98
2022-11-25T00:23:59.079Z,6.96
2022-11-25T00:26:28.098Z,7.01
2022-11-25T00:28:58.825Z,6.98
2022-11-25T00:31:28.801Z,6.93
2022-11-25T00:33:57.613Z,6.92
2022-11-25T00:36:29.234Z,7.00
2022-11-25T00:38:59.605Z,7.06
2022-11-25T00:41:43.026Z,7.03
2022-11-25T00:44:29.907Z,7.05
2022-11-25T00:46:58.085Z,7.07
2022-11-25T00:49:26.303Z,7.10
2022-11-25T00:51:56.779Z,7.11
2022-11-25T00:54:25.102Z,7.10
2022-11-25T00:56:53.632Z,7.17
2022-11-25T00:59:21.783Z,7.14
2022-11-25T01:01:49.951Z,7.13
2022-11-25T01:04:18.221Z,7.11
2022-11-25T01:06:46.181Z,7.03
2022-11-25T01:09:15.796Z,7.06
2022-11-25T01:11:44.043Z,7.07
2022-11-25T01:14:12.191Z,7.05
2022-11-25T01:16:40.272Z,7.15
2022-11-25T01:19:08.415Z,7.17
2022-11-25T01:21:36.816Z,7.13
2022-11-25T01:24:06.914Z,7.05
2022-11-25T01:26:37.129Z,7.10
2022-11-25T01:29:07.259Z,7.10
2022-11-25T01:31:36.910Z,7.11
2022-11-25T01:34:07.825Z,7.10
2022-11-25T01:36:35.981Z,7.11
2022-11-25T01:39:04.091Z,7.17
2022-11-25T01:41:34.625Z,7.12
2022-11-25T01:44:14.270Z,7.15
2022-11-25T01:46:56.220Z,7.15
2022-11-25T01:49:30.328Z,7.15
2022-11-25T01:52:03.812Z,7.19
2022-11-25T01:54:36.801Z,7.14
2022-11-25T01:57:09.329Z,7.17
2022-11-25T01:59:43.143Z,7.21
2022-11-25T02:02:11.737Z,7.24
2022-11-25T02:04:41.572Z,7.28
2022-11-25T02:07:16.184Z,7.27
2022-11-25T02:09:46.937Z,7.27
2022-11-25T02:12:17.818Z,7.26
2022-11-25T02:14:48.135Z,7.22
2022-11-25T02:17:16.284Z,7.22
2022-11-25T02:19:58.150Z,7.31
2022-11-25T02:22:32.251Z,7.23
2022-11-25T02:25:10.745Z,7.26
2022-11-25T02:27:38.964Z,7.31
2022-11-25T02:30:08.388Z,7.34
2022-11-25T02:32:36.500Z,7.36
2022-11-25T02:35:26.363Z,7.32
2022-11-25T02:37:58.073Z,7.33
2022-11-25T02:40:29.137Z,7.30
2022-11-25T02:43:01.127Z,7.30
2022-11-25T02:45:37.870Z,7.30
2022-11-25T02:48:06.670Z,7.31
2022-11-25T02:50:34.982Z,7.31
2022-11-25T02:53:03.009Z,7.30
2022-11-25T02:55:32.495Z,7.33
2022-11-25T02:58:00.644Z,7.32
2022-11-25T03:00:28.892Z,7.33
2022-11-25T03:02:57.285Z,7.34
2022-11-25T03:05:25.595Z,7.40
2022-11-25T03:07:53.682Z,7.41
2022-11-25T03:10:21.878Z,7.41
2022-11-25T03:12:51.589Z,7.39
2022-11-25T03:15:20.252Z,7.42
2022-11-25T03:17:48.326Z,7.40
2022-11-25T03:20:16.823Z,7.41
2022-11-25T03:22:44.983Z,7.42
2022-11-25T03:25:14.101Z,7.43
2022-11-25T03:27:42.759Z,7.42
2022-11-25T03:30:15.407Z,7.43
2022-11-25T03:32:43.640Z,7.42
2022-11-25T03:35:14.893Z,7.48
2022-11-25T03:37:43.154Z,7.48
2022-11-25T03:40:13.550Z,7.49
2022-11-25T03:42:42.391Z,7.49
2022-11-25T03:45:14.690Z,7.53
2022-11-25T03:47:43.306Z,7.54
2022-11-25T03:50:13.934Z,7.56
2022-11-25T03:52:42.622Z,7.55
2022-11-25T03:55:13.161Z,7.65
2022-11-25T03:57:41.854Z,7.59
2022-11-25T04:00:11.083Z,7.59
2022-11-25T04:02:40.629Z,7.53
2022-11-25T04:05:09.344Z,7.57
2022-11-25T04:07:37.426Z,7.58
2022-11-25T04:10:06.192Z,7.57
2022-11-25T04:12:48.275Z,7.57
2022-11-25T04:15:18.095Z,7.60
2022-11-25T04:17:47.554Z,7.54
2022-11-25T04:20:16.203Z,7.59
2022-11-25T04:22:44.305Z,7.55
2022-11-25T04:25:12.538Z,7.51
2022-11-25T04:27:40.757Z,7.51
2022-11-25T04:30:11.917Z,7.46
2022-11-25T04:32:40.287Z,7.47
2022-11-25T04:35:10.647Z,7.49
2022-11-25T04:37:38.751Z,7.50
2022-11-25T04:40:08.065Z,7.42
2022-11-25T04:42:36.962Z,7.45
2022-11-25T04:45:22.418Z,7.44
2022-11-25T04:47:51.700Z,7.41
2022-11-25T04:50:23.964Z,7.49
2022-11-25T04:52:52.125Z,7.50
2022-11-25T04:55:20.177Z,7.56
2022-11-25T04:57:48.232Z,7.58
2022-11-25T05:00:16.234Z,7.59
2022-11-25T05:02:44.408Z,7.55
2022-11-25T05:05:12.562Z,7.53
2022-11-25T05:07:42.240Z,7.57
2022-11-25T05:10:10.621Z,7.54
2022-11-25T05:12:39.421Z,7.54
2022-11-25T05:15:09.270Z,7.54
2022-11-25T05:17:39.193Z,7.55
2022-11-25T05:20:09.141Z,7.57
2022-11-25T05:22:37.207Z,7.60
2022-11-25T05:25:07.171Z,7.59
2022-11-25T05:27:35.245Z,7.61
2022-11-25T05:30:03.377Z,7.60
2022-11-25T05:32:33.666Z,7.60
2022-11-25T05:35:01.721Z,7.55
2022-11-25T05:37:30.109Z,7.59
2022-11-25T05:39:58.302Z,7.64
2022-11-25T05:42:30.158Z,7.63
2022-11-25T05:45:01.849Z,7.66
2022-11-25T05:47:29.963Z,7.65
2022-11-25T05:49:57.932Z,7.66
2022-11-25T05:52:26.009Z,7.68
2022-11-25T05:54:57.225Z,7.67
2022-11-25T05:57:28.726Z,7.68
2022-11-25T05:59:56.705Z,7.67
2022-11-25T06:02:24.706Z,7.66
2022-11-25T06:04:52.775Z,7.69
2022-11-25T06:07:20.823Z,7.70
2022-11-25T06:09:49.216Z,7.70
2022-11-25T06:12:17.902Z,7.66
2022-11-25T06:14:47.547Z,7.66
2022-11-25T06:17:15.560Z,7.65
2022-11-25T06:19:43.586Z,7.63
2022-11-25T06:22:14.698Z,7.57
2022-11-25T06:24:43.631Z,7.55
2022-11-25T06:27:12.737Z,7.52
2022-11-25T06:29:40.781Z,7.52
2022-11-25T06:32:10.597Z,7.50
2022-11-25T06:34:42.055Z,7.50
2022-11-25T06:37:10.165Z,7.48
2022-11-25T06:39:38.170Z,7.44
2022-11-25T06:42:06.281Z,7.42
2022-11-25T06:44:36.879Z,7.44
2022-11-25T06:47:05.133Z,7.37
2022-11-25T06:49:34.949Z,7.30
2022-11-25T06:52:02.964Z,7.27
2022-11-25T06:54:31.059Z,7.24
2022-11-25T06:56:59.175Z,7.19
2022-11-25T06:59:27.264Z,7.13
2022-11-25T07:01:58.499Z,7.06
2022-11-25T07:04:26.747Z,7.02
2022-11-25T07:06:56.275Z,6.97
2022-11-25T07:09:24.986Z,6.88
2022-11-25T07:11:53.096Z,6.82
2022-11-25T07:14:21.161Z,6.76
2022-11-25T07:16:49.430Z,6.72
2022-11-25T07:19:19.347Z,6.76
2022-11-25T07:21:48.035Z,6.73
2022-11-25T07:24:19.001Z,6.77
2022-11-25T07:26:47.225Z,6.75
2022-11-25T07:29:51.670Z,6.73
2022-11-25T07:32:10.227Z,6.67
2022-11-25T07:34:38.851Z,6.64
2022-11-25T07:37:06.956Z,6.61
2022-11-25T07:39:36.880Z,6.59
2022-11-25T07:42:05.520Z,6.55
2022-11-25T07:44:33.836Z,6.55
2022-11-25T07:47:01.799Z,6.53
2022-11-25T07:49:29.882Z,6.51
2022-11-25T07:52:00.661Z,6.52
2022-11-25T07:54:28.767Z,6.46
2022-11-25T07:56:58.317Z,6.51
2022-11-25T07:59:26.434Z,6.57
2022-11-25T08:01:56.738Z,6.57
2022-11-25T08:04:25.435Z,6.63
2022-11-25T08:06:54.249Z,6.75
2022-11-25T08:09:24.177Z,6.77
2022-11-25T08:11:52.496Z,6.89
2022-11-25T08:14:22.369Z,6.97
2022-11-25T08:16:50.703Z,7.12
2022-11-25T08:19:21.145Z,7.21
2022-11-25T08:21:49.184Z,7.30
2022-11-25T08:24:18.618Z,7.34
2022-11-25T08:26:46.762Z,7.45
2022-11-25T08:29:16.814Z,7.53
2022-11-25T08:31:46.552Z,7.57
2022-11-25T08:34:19.123Z,7.55
2022-11-25T08:36:48.752Z,7.61
2022-11-25T08:42:07.822Z,7.67
2022-11-25T08:44:36.348Z,7.73
2022-11-25T08:47:05.905Z,7.76
2022-11-25T08:49:40.549Z,7.77
2022-11-25T08:52:10.625Z,7.81
2022-11-25T08:54:39.214Z,7.87
2022-11-25T08:57:07.362Z,7.90
2022-11-25T08:59:36.060Z,7.98
2022-11-25T09:02:06.170Z,8.02
2022-11-25T09:04:34.705Z,8.00
2022-11-25T09:07:04.964Z,8.08
2022-11-25T09:09:36.135Z,8.07
2022-11-25T09:12:05.069Z,8.13
2022-11-25T09:14:33.219Z,8.16
2022-11-25T09:17:02.072Z,8.23
2022-11-25T09:19:31.462Z,8.26
2022-11-25T09:21:59.572Z,8.31
2022-11-25T09:24:27.796Z,8.34
2022-11-25T09:26:55.889Z,8.42
2022-11-25T09:29:23.898Z,8.55
2022-11-25T09:31:54.933Z,8.66
2022-11-25T09:34:23.313Z,8.79
2022-11-25T09:36:52.953Z,8.88
2022-11-25T09:39:21.231Z,9.12
2022-11-25T09:42:22.946Z,9.34
2022-11-25T09:45:21.675Z,9.75
2022-11-25T09:48:01.933Z,9.90
2022-11-25T09:50:45.747Z,10.04
2022-11-25T09:53:39.396Z,10.19
2022-11-25T09:56:19.875Z,10.29
2022-11-25T09:58:54.676Z,10.25
2022-11-25T10:01:28.895Z,10.12
2022-11-25T10:04:01.755Z,10.04
2022-11-25T10:06:31.028Z,9.92
2022-11-25T10:09:03.038Z,9.79
2022-11-25T10:11:44.035Z,9.72
2022-11-25T10:14:22.835Z,9.75
2022-11-25T10:16:53.057Z,9.71
2022-11-25T10:19:29.652Z,9.66
2022-11-25T10:21:57.772Z,9.54
2022-11-25T10:24:27.531Z,9.57
2022-11-25T10:27:00.739Z,9.61
2022-11-25T10:29:30.980Z,9.55
2022-11-25T10:32:19.605Z,9.46
2022-11-25T10:34:52.077Z,9.47
2022-11-25T10:37:30.355Z,9.49
2022-11-25T10:40:00.164Z,9.47
2022-11-25T10:42:30.393Z,9.47
2022-11-25T10:44:58.564Z,9.44
2022-11-25T10:47:37.924Z,9.44
2022-11-25T10:50:16.471Z,9.45
2022-11-25T10:52:51.362Z,9.44
2022-11-25T10:55:24.328Z,9.55
2022-11-25T10:57:52.541Z,9.64
2022-11-25T11:00:35.023Z,9.63
2022-11-25T11:03:15.790Z,9.64
2022-11-25T11:05:49.984Z,9.63
2022-11-25T11:08:22.151Z,9.66
2022-11-25T11:11:11.724Z,9.68
2022-11-25T11:13:39.800Z,9.71
2022-11-25T11:16:24.711Z,9.71
2022-11-25T11:18:53.438Z,9.73
2022-11-25T11:21:30.085Z,9.76
2022-11-25T11:23:59.754Z,9.73
2022-11-25T11:26:31.491Z,9.76
2022-11-25T11:29:03.202Z,9.73
2022-11-25T11:31:36.426Z,9.82
2022-11-25T11:34:20.129Z,9.84
2022-11-25T11:37:06.815Z,9.82
2022-11-25T11:39:49.500Z,9.82
2022-11-25T11:42:29.007Z,9.84
2022-11-25T11:45:06.353Z,9.80
2022-11-25T11:48:00.016Z,9.90
2022-11-25T11:50:33.068Z,10.02
2022-11-25T11:53:07.140Z,10.04
2022-11-25T11:56:11.737Z,10.07
2022-11-25T11:58:59.859Z,10.13
2022-11-25T12:01:40.606Z,10.15
2022-11-25T12:04:19.047Z,10.14
2022-11-25T12:06:57.474Z,10.20
2022-11-25T12:09:30.700Z,10.19
2022-11-25T12:12:05.570Z,10.26
2022-11-25T12:14:43.744Z,10.26
2022-11-25T12:17:19.761Z,10.34
2022-11-25T12:19:56.386Z,10.40
2022-11-25T12:22:29.975Z,10.42
2022-11-25T12:25:06.280Z,10.42
2022-11-25T12:27:38.938Z,10.48
2022-11-25T12:30:12.859Z,10.53
2022-11-25T12:33:00.658Z,10.58
2022-11-25T12:35:46.995Z,10.64
2022-11-25T12:38:24.708Z,10.68
2022-11-25T12:41:02.860Z,10.74
2022-11-25T12:43:40.743Z,10.83
2022-11-25T12:46:20.347Z,10.82
2022-11-25T12:48:48.658Z,10.89
2022-11-25T12:51:46.222Z,10.83
2022-11-25T12:54:31.593Z,10.89
2022-11-25T12:57:29.761Z,10.92
2022-11-25T13:00:39.924Z,10.91
2022-11-25T13:03:36.187Z,10.88
2022-11-25T13:06:23.653Z,10.82
2022-11-25T13:09:06.906Z,10.87
2022-11-25T13:12:14.016Z,10.87
2022-11-25T13:15:12.807Z,10.92
2022-11-25T13:17:44.338Z,11.01
2022-11-25T13:20:44.061Z,11.08
2022-11-25T13:23:25.145Z,11.10
2022-11-25T13:25:56.557Z,11.09
2022-11-25T13:28:33.968Z,11.16
2022-11-25T13:31:23.515Z,11.16
2022-11-25T13:34:26.732Z,11.11
2022-11-25T13:36:57.300Z,11.08
2022-11-25T13:39:33.806Z,11.07
2022-11-25T13:42:04.973Z,11.06
2022-11-25T13:44:35.345Z,11.05
2022-11-25T13:47:34.208Z,10.98
2022-11-25T13:50:08.372Z,10.92
2022-11-25T13:52:44.437Z,10.93
2022-11-25T13:55:34.299Z,10.85
2022-11-25T13:58:17.208Z,10.84
2022-11-25T14:01:24.852Z,10.81
2022-11-25T14:04:01.144Z,10.78
2022-11-25T14:06:41.521Z,10.78
2022-11-25T14:09:26.890Z,10.71
2022-11-25T14:12:17.317Z,10.70
2022-11-25T14:15:17.267Z,10.71
2022-11-25T14:18:09.093Z,10.65
2022-11-25T14:20:46.304Z,10.52
2022-11-25T14:23:32.949Z,10.56
2022-11-25T14:26:26.671Z,10.55
2022-11-25T14:29:00.156Z,10.51
2022-11-25T14:31:37.115Z,10.50
2022-11-25T14:34:13.835Z,10.45
2022-11-25T14:36:45.825Z,10.44
2022-11-25T14:39:22.166Z,10.41
2022-11-25T14:41:59.084Z,10.47
2022-11-25T14:44:36.568Z,10.40
2022-11-25T14:47:06.296Z,10.41
2022-11-25T14:49:55.769Z,10.34
2022-11-25T14:52:30.444Z,10.29
2022-11-25T14:54:59.935Z,10.26
2022-11-25T14:57:33.486Z,10.23
2022-11-25T15:00:07.331Z,10.18
2022-11-25T15:02:37.717Z,10.08
2022-11-25T15:05:18.587Z,10.07
2022-11-25T15:07:58.956Z,10.00
2022-11-25T15:10:39.255Z,9.97
2022-11-25T15:13:15.557Z,9.92
2022-11-25T15:15:46.929Z,9.84
2022-11-25T15:18:20.175Z,9.80
2022-11-25T15:20:51.382Z,9.75
2022-11-25T15:23:28.102Z,9.69
2022-11-25T15:25:57.848Z,9.61
2022-11-25T15:28:27.356Z,9.58
2022-11-25T15:31:00.024Z,9.48
2022-11-25T15:33:30.368Z,9.42
2022-11-25T15:35:58.443Z,9.38
2022-11-25T15:38:42.198Z,9.36
2022-11-25T15:41:21.560Z,9.26
2022-11-25T15:43:54.862Z,9.22
2022-11-25T15:46:24.785Z,9.17
2022-11-25T15:48:55.319Z,9.10
2022-11-25T15:51:41.625Z,9.02
2022-11-25T15:54:18.656Z,8.98
2022-11-25T15:56:50.699Z,8.87
2022-11-25T15:59:47.355Z,8.80
2022-11-25T16:02:34.973Z,8.71
2022-11-25T16:05:36.143Z,8.66
2022-11-25T16:08:25.881Z,8.58
2022-11-25T16:11:00.352Z,8.51
2022-11-25T16:13:34.446Z,8.46
2022-11-25T16:16:18.057Z,8.32
2022-11-25T16:18:57.734Z,8.25
2022-11-25T16:21:30.371Z,8.19
2022-11-25T16:24:14.352Z,8.16
2022-11-25T16:26:52.131Z,8.12
2022-11-25T16:29:24.117Z,8.07
2022-11-25T16:31:53.582Z,8.04
2022-11-25T16:34:24.269Z,7.93
2022-11-25T16:36:52.331Z,7.93
2022-11-25T16:39:20.740Z,7.90
2022-11-25T16:41:57.774Z,7.93
2022-11-25T16:44:27.522Z,7.92
2022-11-25T16:46:57.155Z,7.92
2022-11-25T16:49:25.813Z,7.92
2022-11-25T16:51:54.424Z,7.90
2022-11-25T16:54:23.731Z,7.87
2022-11-25T16:56:53.977Z,7.85
2022-11-25T16:59:31.949Z,7.84
2022-11-25T17:02:02.584Z,7.81
2022-11-25T17:04:30.730Z,7.79
2022-11-25T17:09:47.190Z,7.74
2022-11-25T17:12:18.876Z,7.71
2022-11-25T17:14:49.254Z,7.68
2022-11-25T17:17:24.709Z,7.67
2022-11-25T17:19:53.312Z,7.60
2022-11-25T17:22:23.409Z,7.56
2022-11-25T17:24:51.469Z,7.55
2022-11-25T17:27:23.842Z,7.51
2022-11-25T17:29:52.947Z,7.47
2022-11-25T17:32:25.499Z,7.40
2022-11-25T17:34:53.868Z,7.37
2022-11-25T17:37:23.958Z,7.34
2022-11-25T17:39:52.763Z,7.26
2022-11-25T17:42:24.768Z,7.21
2022-11-25T17:44:54.251Z,7.17
2022-11-25T17:47:23.995Z,7.13
2022-11-25T17:49:52.146Z,7.17
2022-11-25T17:52:20.356Z,7.15
2022-11-25T17:54:48.383Z,7.16
2022-11-25T17:57:21.031Z,7.11
2022-11-25T17:59:49.488Z,7.10
2022-11-25T18:02:19.588Z,7.09
2022-11-25T18:04:49.938Z,7.05
2022-11-25T18:07:19.006Z,7.00
2022-11-25T18:09:47.280Z,7.00
2022-11-25T18:12:20.739Z,7.01
2022-11-25T18:14:48.973Z,6.97
2022-11-25T18:17:19.386Z,6.94
2022-11-25T18:19:54.607Z,6.91
2022-11-25T18:22:24.640Z,6.88
2022-11-25T18:24:53.650Z,6.84
2022-11-25T18:27:24.527Z,6.82
2022-11-25T18:29:53.540Z,6.81
2022-11-25T18:32:22.705Z,6.79
2022-11-25T18:34:53.045Z,6.76
2022-11-25T18:37:21.602Z,6.71
2022-11-25T18:39:49.635Z,6.73
2022-11-25T18:42:25.417Z,6.69
2022-11-25T18:44:54.341Z,6.66
2022-11-25T18:47:22.388Z,6.60
2022-11-25T18:49:55.573Z,6.58
2022-11-25T18:52:26.480Z,6.52
2022-11-25T18:54:54.700Z,6.51
2022-11-25T18:57:22.788Z,6.47
2022-11-25T19:00:16.871Z,6.44
2022-11-25T19:02:39.091Z,6.41
2022-11-25T19:05:16.746Z,6.35
2022-11-25T19:07:46.947Z,6.32
2022-11-25T19:10:16.191Z,6.28
2022-11-25T19:12:46.883Z,6.22
2022-11-25T19:15:20.416Z,6.18
2022-11-25T19:17:51.797Z,6.17
2022-11-25T19:20:22.104Z,6.18
2022-11-25T19:22:51.509Z,6.16
2022-11-25T19:25:19.580Z,6.15
2022-11-25T19:27:52.439Z,6.10
2022-11-25T19:30:23.403Z,6.04
2022-11-25T19:32:55.319Z,6.03
2022-11-25T19:35:27.905Z,5.99
2022-11-25T19:37:57.406Z,5.94
2022-11-25T19:40:26.009Z,5.91
2022-11-25T19:42:54.039Z,5.88
2022-11-25T19:45:23.251Z,5.83
2022-11-25T19:47:53.044Z,5.80
2022-11-25T19:50:23.392Z,5.78
2022-11-25T19:52:51.777Z,5.73
2022-11-25T19:55:23.418Z,5.69
2022-11-25T19:57:52.931Z,5.67
2022-11-25T20:00:22.811Z,5.63
2022-11-25T20:02:54.447Z,5.56
2022-11-25T20:05:25.676Z,5.52
2022-11-25T20:07:54.185Z,5.50
2022-11-25T20:10:26.042Z,5.52
2022-11-25T20:12:58.014Z,5.52
2022-11-25T20:15:26.811Z,5.52
2022-11-25T20:17:57.097Z,5.48
2022-11-25T20:20:28.688Z,5.45
2022-11-25T20:23:02.798Z,5.44
2022-11-25T20:25:32.701Z,5.43
2022-11-25T20:28:00.698Z,5.41
2022-11-25T20:30:30.141Z,5.38
2022-11-25T20:32:58.272Z,5.36
2022-11-25T20:35:27.444Z,5.36
2022-11-25T20:37:57.911Z,5.33
2022-11-25T20:40:33.389Z,5.31
2022-11-25T20:43:03.093Z,5.29
2022-11-25T20:45:31.172Z,5.32
2022-11-25T20:47:59.344Z,5.20
2022-11-25T20:50:31.548Z,5.16
2022-11-25T20:52:59.604Z,5.13
2022-11-25T20:55:27.701Z,5.05
2022-11-25T20:57:55.721Z,5.02
2022-11-25T21:00:26.828Z,4.97
2022-11-25T21:02:57.417Z,4.94
2022-11-25T21:05:27.593Z,4.86
2022-11-25T21:07:55.737Z,4.83
2022-11-25T21:10:28.368Z,4.81
2022-11-25T21:12:57.568Z,4.78
2022-11-25T21:15:29.693Z,4.77
2022-11-25T21:17:59.676Z,4.73
2022-11-25T21:20:28.076Z,4.75
2022-11-25T21:23:05.485Z,4.79
2022-11-25T21:25:35.302Z,4.77
2022-11-25T21:28:03.510Z,4.83
2022-11-25T21:30:32.996Z,4.78
2022-11-25T21:33:02.641Z,4.68
2022-11-25T21:35:33.314Z,4.67
2022-11-25T21:38:04.544Z,4.59
2022-11-25T21:40:37.891Z,4.54
2022-11-25T21:43:07.120Z,4.47
2022-11-25T21:45:39.230Z,4.46
2022-11-25T21:48:15.176Z,4.43
2022-11-25T21:50:43.475Z,4.41
2022-11-25T21:53:11.815Z,4.38
2022-11-25T21:55:39.983Z,4.35
2022-11-25T21:58:18.412Z,4.28
2022-11-25T22:00:51.715Z,4.26
2022-11-25T22:03:21.517Z,4.21
2022-11-25T22:05:50.361Z,4.19
2022-11-25T22:08:19.407Z,4.18
2022-11-25T22:10:51.235Z,4.17
2022-11-25T22:13:22.359Z,4.15
2022-11-25T22:15:58.033Z,4.13
2022-11-25T22:18:30.812Z,4.07
2022-11-25T22:20:58.641Z,4.07
2022-11-25T22:23:27.089Z,4.05
2022-11-25T22:25:56.082Z,4.03
2022-11-25T22:28:27.569Z,3.99
2022-11-25T22:30:59.515Z,4.01
2022-11-25T22:33:31.434Z,4.00
2022-11-25T22:35:59.890Z,3.97
2022-11-25T22:38:28.801Z,3.98
2022-11-25T22:40:59.775Z,3.98
2022-11-25T22:43:30.602Z,3.95
2022-11-25T22:46:00.275Z,3.91
2022-11-25T22:48:32.684Z,3.92
2022-11-25T22:51:00.741Z,3.91
2022-11-25T22:53:29.000Z,3.91
2022-11-25T22:55:58.491Z,3.89
2022-11-25T22:58:28.420Z,3.85
2022-11-25T23:00:57.805Z,3.86
2022-11-25T23:03:30.155Z,3.84
2022-11-25T23:05:58.928Z,3.79
2022-11-25T23:08:28.952Z,3.81
2022-11-25T23:10:57.479Z,3.78
2022-11-25T23:13:25.829Z,3.76
2022-11-25T23:15:55.924Z,3.73
2022-11-25T23:18:31.748Z,3.72
2022-11-25T23:21:02.415Z,3.68
2022-11-25T23:23:31.064Z,3.69
2022-11-25T23:25:59.689Z,3.68
2022-11-25T23:28:27.927Z,3.68
2022-11-25T23:30:57.631Z,3.66
2022-11-25T23:33:30.895Z,3.68
2022-11-25T23:36:02.530Z,3.66
2022-11-25T23:38:32.952Z,3.65
2022-11-25T23:41:01.014Z,3.64
2022-11-25T23:43:29.094Z,3.58
2022-11-25T23:45:57.767Z,3.59
2022-11-25T23:48:31.734Z,3.57
2022-11-25T23:51:02.242Z,3.53
2022-11-25T23:53:33.047Z,3.49
2022-11-25T23:56:01.104Z,3.48
2022-11-25T23:58:29.355Z,3.50
